KACK

Nantucket Memorial Airport

Nantucket, Massachusetts, USA
KACK 210533Z 2106/2206 30021G30KT P6SM BKN025 FM211400 29022G31KT P6SM VCSH OVC020 FM212300 31025G34KT P6SM OVC030 FM220400 31025G36KT P6SM BKN050 FM220500 31025G36KT P6SM SCT200
Issued Valid From Valid To
Jan-21 @ 05:33 UTC
(4 hours ago)
Jan-21 @ 06:00 UTC
(4 hours ago)
Jan-22 @ 06:00 UTC
(in 20 hours)
Jan-21 @ 06:00 to Jan-21 @ 14:00
KACK 210533Z 2106/2206 30021G30KT P6SM BKN025
Wind Visibility Clouds
300° at 21 knots
 Gusting to 30 knots
Greater than 6 miles
  • Broken at 2,500' AGL
From Jan-21 @ 14:00 to Jan-21 @ 23:00
FM211400 29022G31KT P6SM VCSH OVC020
Wind Visibility Clouds
290° at 22 knots
 Gusting to 31 knots
Greater than 6 miles
  • Overcast at 2,000' AGL
From Jan-21 @ 23:00 to Jan-22 @ 04:00
FM212300 31025G34KT P6SM OVC030
Wind Visibility Clouds
310° at 25 knots
 Gusting to 34 knots
Greater than 6 miles
  • Overcast at 3,000' AGL
From Jan-22 @ 04:00 to Jan-22 @ 05:00
FM220400 31025G36KT P6SM BKN050
Wind Visibility Clouds
310° at 25 knots
 Gusting to 36 knots
Greater than 6 miles
  • Broken at 5,000' AGL
From Jan-22 @ 05:00 to Jan-22 @ 06:00
FM220500 31025G36KT P6SM SCT200
Wind Visibility Clouds
310° at 25 knots
 Gusting to 36 knots
Greater than 6 miles
  • Scattered at 20,000' AGL
KACK 210533Z 2106/2206 30021G30KT P6SM BKN025 FM211400 29022G31KT P6SM VCSH OVC020 FM212300 31025G34KT P6SM OVC030 FM220400 31025G36KT P6SM BKN050 FM220500 31025G36KT P6SM SCT200
Issued Jan-21 @ 05:33 UTC
(4 hours ago)
Valid From Jan-21 @ 06:00 UTC
(4 hours ago)
Valid To Jan-22 @ 06:00 UTC
(in 20 hours)
Jan-21 @ 06:00 - Jan-21 @ 14:00
Wind Visibility
300° at 21 knots
 Gusting to 30 knots
Greater than 6 miles
Clouds
  • Broken at 2,500' AGL
From Jan-21 @ 14:00 - Jan-21 @ 23:00
Wind Visibility
290° at 22 knots
 Gusting to 31 knots
Greater than 6 miles
Clouds
  • Overcast at 2,000' AGL
From Jan-21 @ 23:00 - Jan-22 @ 04:00
Wind Visibility
310° at 25 knots
 Gusting to 34 knots
Greater than 6 miles
Clouds
  • Overcast at 3,000' AGL
From Jan-22 @ 04:00 - Jan-22 @ 05:00
Wind Visibility
310° at 25 knots
 Gusting to 36 knots
Greater than 6 miles
Clouds
  • Broken at 5,000' AGL
From Jan-22 @ 05:00 - Jan-22 @ 06:00
Wind Visibility
310° at 25 knots
 Gusting to 36 knots
Greater than 6 miles
Clouds
  • Scattered at 20,000' AGL